sensor_id;sensor_type;location;lat;lon;timestamp;temperature;humidity
20726;DHT22;10524;48.132;8.518;2022-12-08T00:00:52;-5.40;99.90
20726;DHT22;10524;48.132;8.518;2022-12-08T00:03:18;-5.70;99.90
20726;DHT22;10524;48.132;8.518;2022-12-08T00:05:47;-5.90;99.90
20726;DHT22;10524;48.132;8.518;2022-12-08T00:08:32;-6.00;99.90
20726;DHT22;10524;48.132;8.518;2022-12-08T00:11:17;-6.00;99.90
20726;DHT22;10524;48.132;8.518;2022-12-08T00:13:43;-6.10;99.90
20726;DHT22;10524;48.132;8.518;2022-12-08T00:16:09;-6.10;99.90
20726;DHT22;10524;48.132;8.518;2022-12-08T00:18:34;-6.20;99.90
20726;DHT22;10524;48.132;8.518;2022-12-08T00:21:00;-6.20;99.90
20726;DHT22;10524;48.132;8.518;2022-12-08T00:23:26;-6.30;99.90
20726;DHT22;10524;48.132;8.518;2022-12-08T00:25:52;-6.20;99.90
20726;DHT22;10524;48.132;8.518;2022-12-08T00:28:18;-6.10;99.90
20726;DHT22;10524;48.132;8.518;2022-12-08T00:30:43;-6.00;99.90
20726;DHT22;10524;48.132;8.518;2022-12-08T00:33:10;-5.70;99.90
20726;DHT22;10524;48.132;8.518;2022-12-08T00:35:36;-5.60;99.90
20726;DHT22;10524;48.132;8.518;2022-12-08T00:38:02;-5.60;99.90
20726;DHT22;10524;48.132;8.518;2022-12-08T00:40:27;-5.60;99.90
20726;DHT22;10524;48.132;8.518;2022-12-08T00:42:53;-5.70;99.90
20726;DHT22;10524;48.132;8.518;2022-12-08T00:45:19;-5.70;99.90
20726;DHT22;10524;48.132;8.518;2022-12-08T00:47:44;-5.60;99.90
20726;DHT22;10524;48.132;8.518;2022-12-08T00:50:10;-5.60;99.90
20726;DHT22;10524;48.132;8.518;2022-12-08T00:52:36;-5.70;99.90
20726;DHT22;10524;48.132;8.518;2022-12-08T00:55:02;-5.80;99.90
20726;DHT22;10524;48.132;8.518;2022-12-08T00:57:28;-5.80;99.90
20726;DHT22;10524;48.132;8.518;2022-12-08T00:59:54;-5.90;99.90
20726;DHT22;10524;48.132;8.518;2022-12-08T01:02:19;-6.10;99.90
20726;DHT22;10524;48.132;8.518;2022-12-08T01:04:45;-6.30;99.90
20726;DHT22;10524;48.132;8.518;2022-12-08T01:07:11;-6.40;99.90
20726;DHT22;10524;48.132;8.518;2022-12-08T01:09:36;-6.50;99.90
20726;DHT22;10524;48.132;8.518;2022-12-08T01:12:02;-6.60;99.90
20726;DHT22;10524;48.132;8.518;2022-12-08T01:14:28;-6.60;99.90
20726;DHT22;10524;48.132;8.518;2022-12-08T01:16:54;-6.60;99.90
20726;DHT22;10524;48.132;8.518;2022-12-08T01:19:19;-6.70;99.90
20726;DHT22;10524;48.132;8.518;2022-12-08T01:21:45;-6.70;99.90
20726;DHT22;10524;48.132;8.518;2022-12-08T01:24:14;-6.80;99.90
20726;DHT22;10524;48.132;8.518;2022-12-08T01:26:40;-6.80;99.90
20726;DHT22;10524;48.132;8.518;2022-12-08T01:29:05;-6.80;99.90
20726;DHT22;10524;48.132;8.518;2022-12-08T01:31:31;-6.70;99.90
20726;DHT22;10524;48.132;8.518;2022-12-08T01:33:57;-6.50;99.90
20726;DHT22;10524;48.132;8.518;2022-12-08T01:36:30;-6.30;99.90
20726;DHT22;10524;48.132;8.518;2022-12-08T01:38:58;-6.00;99.90
20726;DHT22;10524;48.132;8.518;2022-12-08T01:41:28;-6.00;99.90
20726;DHT22;10524;48.132;8.518;2022-12-08T01:44:45;-6.00;99.90
20726;DHT22;10524;48.132;8.518;2022-12-08T01:46:48;-6.00;99.90
20726;DHT22;10524;48.132;8.518;2022-12-08T01:49:29;-5.90;99.90
20726;DHT22;10524;48.132;8.518;2022-12-08T01:54:54;-5.70;99.90
20726;DHT22;10524;48.132;8.518;2022-12-08T01:57:22;-5.50;99.90
20726;DHT22;10524;48.132;8.518;2022-12-08T01:59:53;-5.30;99.90
20726;DHT22;10524;48.132;8.518;2022-12-08T02:02:21;-5.10;99.90
20726;DHT22;10524;48.132;8.518;2022-12-08T02:04:47;-4.90;99.90
20726;DHT22;10524;48.132;8.518;2022-12-08T02:07:14;-4.70;99.90
20726;DHT22;10524;48.132;8.518;2022-12-08T02:09:41;-4.70;99.90
20726;DHT22;10524;48.132;8.518;2022-12-08T02:12:07;-4.70;99.90
20726;DHT22;10524;48.132;8.518;2022-12-08T02:14:33;-4.80;99.90
20726;DHT22;10524;48.132;8.518;2022-12-08T02:29:13;-5.60;99.90
20726;DHT22;10524;48.132;8.518;2022-12-08T02:39:43;-6.10;99.90
20726;DHT22;10524;48.132;8.518;2022-12-08T02:42:37;-6.10;99.90
20726;DHT22;10524;48.132;8.518;2022-12-08T02:45:18;-6.00;99.90
20726;DHT22;10524;48.132;8.518;2022-12-08T02:47:47;-6.10;99.90
20726;DHT22;10524;48.132;8.518;2022-12-08T02:50:14;-6.20;99.90
20726;DHT22;10524;48.132;8.518;2022-12-08T02:52:44;-6.20;99.90
20726;DHT22;10524;48.132;8.518;2022-12-08T03:03:33;-5.60;99.90
20726;DHT22;10524;48.132;8.518;2022-12-08T03:06:27;-5.40;99.90
20726;DHT22;10524;48.132;8.518;2022-12-08T03:09:17;-5.30;99.90
20726;DHT22;10524;48.132;8.518;2022-12-08T03:12:39;-5.10;99.90
20726;DHT22;10524;48.132;8.518;2022-12-08T03:14:43;-5.00;99.90
20726;DHT22;10524;48.132;8.518;2022-12-08T03:17:10;-5.00;99.90
20726;DHT22;10524;48.132;8.518;2022-12-08T03:19:40;-5.00;99.90
20726;DHT22;10524;48.132;8.518;2022-12-08T03:22:08;-5.00;99.90
20726;DHT22;10524;48.132;8.518;2022-12-08T03:24:37;-5.00;99.90
20726;DHT22;10524;48.132;8.518;2022-12-08T03:27:27;-5.10;99.90
20726;DHT22;10524;48.132;8.518;2022-12-08T03:29:55;-5.20;99.90
20726;DHT22;10524;48.132;8.518;2022-12-08T03:32:36;-5.30;99.90
20726;DHT22;10524;48.132;8.518;2022-12-08T03:35:08;-5.30;99.90
20726;DHT22;10524;48.132;8.518;2022-12-08T03:37:37;-5.30;99.90
20726;DHT22;10524;48.132;8.518;2022-12-08T03:40:04;-5.40;99.90
20726;DHT22;10524;48.132;8.518;2022-12-08T03:42:30;-5.30;99.90
20726;DHT22;10524;48.132;8.518;2022-12-08T03:44:56;-5.30;99.90
20726;DHT22;10524;48.132;8.518;2022-12-08T03:47:22;-5.40;99.90
20726;DHT22;10524;48.132;8.518;2022-12-08T03:49:47;-5.60;99.90
20726;DHT22;10524;48.132;8.518;2022-12-08T03:52:13;-5.60;99.90
20726;DHT22;10524;48.132;8.518;2022-12-08T03:54:39;-5.50;99.90
20726;DHT22;10524;48.132;8.518;2022-12-08T03:57:05;-5.40;99.90
20726;DHT22;10524;48.132;8.518;2022-12-08T03:59:30;-5.40;99.90
20726;DHT22;10524;48.132;8.518;2022-12-08T04:01:56;-5.40;99.90
20726;DHT22;10524;48.132;8.518;2022-12-08T04:04:22;-5.30;99.90
20726;DHT22;10524;48.132;8.518;2022-12-08T04:06:47;-5.10;99.90
20726;DHT22;10524;48.132;8.518;2022-12-08T04:09:13;-5.00;99.90
20726;DHT22;10524;48.132;8.518;2022-12-08T04:11:39;-4.90;99.90
20726;DHT22;10524;48.132;8.518;2022-12-08T04:14:04;-4.80;99.90
20726;DHT22;10524;48.132;8.518;2022-12-08T04:16:30;-4.70;99.90
20726;DHT22;10524;48.132;8.518;2022-12-08T04:18:56;-4.70;99.90
20726;DHT22;10524;48.132;8.518;2022-12-08T04:21:21;-4.70;99.90
20726;DHT22;10524;48.132;8.518;2022-12-08T04:23:47;-4.70;99.90
20726;DHT22;10524;48.132;8.518;2022-12-08T04:26:14;-4.90;99.90
20726;DHT22;10524;48.132;8.518;2022-12-08T04:28:39;-5.10;99.90
20726;DHT22;10524;48.132;8.518;2022-12-08T04:31:05;-5.10;99.90
20726;DHT22;10524;48.132;8.518;2022-12-08T04:33:31;-5.20;99.90
20726;DHT22;10524;48.132;8.518;2022-12-08T04:35:57;-5.40;99.90
20726;DHT22;10524;48.132;8.518;2022-12-08T04:38:23;-5.40;99.90
20726;DHT22;10524;48.132;8.518;2022-12-08T04:40:49;-5.50;99.90
20726;DHT22;10524;48.132;8.518;2022-12-08T04:43:14;-5.70;99.90
20726;DHT22;10524;48.132;8.518;2022-12-08T04:45:41;-5.80;99.90
20726;DHT22;10524;48.132;8.518;2022-12-08T04:48:07;-5.70;99.90
20726;DHT22;10524;48.132;8.518;2022-12-08T04:50:34;-5.60;99.90
20726;DHT22;10524;48.132;8.518;2022-12-08T04:52:59;-5.80;99.90
20726;DHT22;10524;48.132;8.518;2022-12-08T04:55:25;-5.80;99.90
20726;DHT22;10524;48.132;8.518;2022-12-08T04:57:51;-5.90;99.90
20726;DHT22;10524;48.132;8.518;2022-12-08T05:00:17;-6.00;99.90
20726;DHT22;10524;48.132;8.518;2022-12-08T05:02:42;-6.10;99.90
20726;DHT22;10524;48.132;8.518;2022-12-08T05:05:08;-6.30;99.90
20726;DHT22;10524;48.132;8.518;2022-12-08T05:07:35;-6.50;99.90
20726;DHT22;10524;48.132;8.518;2022-12-08T05:10:00;-6.40;99.90
20726;DHT22;10524;48.132;8.518;2022-12-08T05:12:26;-6.30;99.90
20726;DHT22;10524;48.132;8.518;2022-12-08T05:14:52;-6.50;99.90
20726;DHT22;10524;48.132;8.518;2022-12-08T05:17:18;-6.60;99.90
20726;DHT22;10524;48.132;8.518;2022-12-08T05:19:43;-6.60;99.90
20726;DHT22;10524;48.132;8.518;2022-12-08T05:22:09;-6.70;99.90
20726;DHT22;10524;48.132;8.518;2022-12-08T05:24:35;-6.70;99.90
20726;DHT22;10524;48.132;8.518;2022-12-08T05:27:00;-6.60;99.90
20726;DHT22;10524;48.132;8.518;2022-12-08T05:29:26;-6.50;99.90
20726;DHT22;10524;48.132;8.518;2022-12-08T05:31:52;-6.50;99.90
20726;DHT22;10524;48.132;8.518;2022-12-08T05:34:18;-6.60;99.90
20726;DHT22;10524;48.132;8.518;2022-12-08T05:36:43;-6.60;99.90
20726;DHT22;10524;48.132;8.518;2022-12-08T05:39:13;-6.60;99.90
20726;DHT22;10524;48.132;8.518;2022-12-08T05:41:40;-6.50;99.90
20726;DHT22;10524;48.132;8.518;2022-12-08T05:44:06;-6.40;99.90
20726;DHT22;10524;48.132;8.518;2022-12-08T05:46:32;-6.50;99.90
20726;DHT22;10524;48.132;8.518;2022-12-08T05:48:59;-6.60;99.90
20726;DHT22;10524;48.132;8.518;2022-12-08T05:51:25;-6.70;99.90
20726;DHT22;10524;48.132;8.518;2022-12-08T05:53:52;-6.80;99.90
20726;DHT22;10524;48.132;8.518;2022-12-08T05:56:18;-6.80;99.90
20726;DHT22;10524;48.132;8.518;2022-12-08T05:58:44;-6.80;99.90
20726;DHT22;10524;48.132;8.518;2022-12-08T06:01:27;-6.90;99.90
20726;DHT22;10524;48.132;8.518;2022-12-08T06:03:54;-6.70;99.90
20726;DHT22;10524;48.132;8.518;2022-12-08T06:06:21;-6.50;99.90
20726;DHT22;10524;48.132;8.518;2022-12-08T06:08:47;-6.30;99.90
20726;DHT22;10524;48.132;8.518;2022-12-08T06:11:27;-6.20;99.90
20726;DHT22;10524;48.132;8.518;2022-12-08T06:13:55;-6.00;99.90
20726;DHT22;10524;48.132;8.518;2022-12-08T06:16:21;-5.90;99.90
20726;DHT22;10524;48.132;8.518;2022-12-08T06:18:48;-5.80;99.90
20726;DHT22;10524;48.132;8.518;2022-12-08T06:21:14;-5.80;99.90
20726;DHT22;10524;48.132;8.518;2022-12-08T06:23:41;-5.80;99.90
20726;DHT22;10524;48.132;8.518;2022-12-08T06:26:09;-5.90;99.90
20726;DHT22;10524;48.132;8.518;2022-12-08T06:28:35;-6.00;99.90
20726;DHT22;10524;48.132;8.518;2022-12-08T06:31:13;-6.10;99.90
20726;DHT22;10524;48.132;8.518;2022-12-08T06:33:39;-6.20;99.90
20726;DHT22;10524;48.132;8.518;2022-12-08T06:36:05;-6.20;99.90
20726;DHT22;10524;48.132;8.518;2022-12-08T06:38:31;-6.20;99.90
20726;DHT22;10524;48.132;8.518;2022-12-08T06:40:58;-6.10;99.90
20726;DHT22;10524;48.132;8.518;2022-12-08T06:43:24;-6.10;99.90
20726;DHT22;10524;48.132;8.518;2022-12-08T06:45:50;-6.30;99.90
20726;DHT22;10524;48.132;8.518;2022-12-08T06:48:17;-6.40;99.90
20726;DHT22;10524;48.132;8.518;2022-12-08T06:50:43;-6.50;99.90
20726;DHT22;10524;48.132;8.518;2022-12-08T06:53:11;-6.60;99.90
20726;DHT22;10524;48.132;8.518;2022-12-08T06:55:41;-6.70;99.90
20726;DHT22;10524;48.132;8.518;2022-12-08T06:58:07;-6.90;99.90
20726;DHT22;10524;48.132;8.518;2022-12-08T07:00:32;-7.10;99.90
20726;DHT22;10524;48.132;8.518;2022-12-08T07:02:58;-7.20;99.90
20726;DHT22;10524;48.132;8.518;2022-12-08T07:05:24;-7.30;99.90
20726;DHT22;10524;48.132;8.518;2022-12-08T07:07:49;-7.30;99.90
20726;DHT22;10524;48.132;8.518;2022-12-08T07:10:15;-7.20;99.90
20726;DHT22;10524;48.132;8.518;2022-12-08T07:12:40;-7.20;99.90
20726;DHT22;10524;48.132;8.518;2022-12-08T07:15:07;-7.10;99.90
20726;DHT22;10524;48.132;8.518;2022-12-08T07:17:32;-7.00;99.90
20726;DHT22;10524;48.132;8.518;2022-12-08T07:19:58;-7.00;99.90
20726;DHT22;10524;48.132;8.518;2022-12-08T07:22:23;-6.90;99.90
20726;DHT22;10524;48.132;8.518;2022-12-08T07:24:49;-6.60;99.90
20726;DHT22;10524;48.132;8.518;2022-12-08T07:27:15;-6.20;99.90
20726;DHT22;10524;48.132;8.518;2022-12-08T07:29:40;-6.00;99.90
20726;DHT22;10524;48.132;8.518;2022-12-08T07:32:07;-5.40;99.90
20726;DHT22;10524;48.132;8.518;2022-12-08T07:34:32;-4.30;99.90
20726;DHT22;10524;48.132;8.518;2022-12-08T07:36:58;-3.50;99.90
20726;DHT22;10524;48.132;8.518;2022-12-08T07:39:24;-2.70;99.90
20726;DHT22;10524;48.132;8.518;2022-12-08T07:41:49;-1.80;99.90
20726;DHT22;10524;48.132;8.518;2022-12-08T07:44:15;-1.10;99.90
20726;DHT22;10524;48.132;8.518;2022-12-08T07:46:40;-0.20;99.90
20726;DHT22;10524;48.132;8.518;2022-12-08T07:49:06;0.90;99.90
20726;DHT22;10524;48.132;8.518;2022-12-08T07:51:32;1.60;99.90
20726;DHT22;10524;48.132;8.518;2022-12-08T07:53:57;2.20;99.90
20726;DHT22;10524;48.132;8.518;2022-12-08T07:56:23;2.40;99.90
20726;DHT22;10524;48.132;8.518;2022-12-08T07:58:49;3.50;99.90
20726;DHT22;10524;48.132;8.518;2022-12-08T08:03:47;4.10;99.90
20726;DHT22;10524;48.132;8.518;2022-12-08T08:06:13;3.60;99.90
20726;DHT22;10524;48.132;8.518;2022-12-08T08:08:39;2.10;99.90
20726;DHT22;10524;48.132;8.518;2022-12-08T08:11:08;1.10;99.90
20726;DHT22;10524;48.132;8.518;2022-12-08T08:13:34;0.60;99.90
20726;DHT22;10524;48.132;8.518;2022-12-08T08:16:07;0.10;99.90
20726;DHT22;10524;48.132;8.518;2022-12-08T08:18:35;0.00;99.90
20726;DHT22;10524;48.132;8.518;2022-12-08T08:21:01;0.10;99.90
20726;DHT22;10524;48.132;8.518;2022-12-08T08:23:27;-0.20;99.90
20726;DHT22;10524;48.132;8.518;2022-12-08T08:25:53;-0.40;99.90
20726;DHT22;10524;48.132;8.518;2022-12-08T08:28:19;-0.70;99.90
20726;DHT22;10524;48.132;8.518;2022-12-08T08:30:46;-0.90;99.90
20726;DHT22;10524;48.132;8.518;2022-12-08T08:33:12;-0.90;99.90
20726;DHT22;10524;48.132;8.518;2022-12-08T08:35:38;-1.00;99.90
20726;DHT22;10524;48.132;8.518;2022-12-08T08:38:04;-1.00;99.90
20726;DHT22;10524;48.132;8.518;2022-12-08T08:40:29;-0.80;99.90
20726;DHT22;10524;48.132;8.518;2022-12-08T08:42:55;-0.70;99.90
20726;DHT22;10524;48.132;8.518;2022-12-08T08:45:21;-0.40;99.90
20726;DHT22;10524;48.132;8.518;2022-12-08T08:47:46;-0.20;99.90
20726;DHT22;10524;48.132;8.518;2022-12-08T08:50:12;-0.10;99.90
20726;DHT22;10524;48.132;8.518;2022-12-08T08:52:38;0.10;99.90
20726;DHT22;10524;48.132;8.518;2022-12-08T08:55:03;0.20;99.90
20726;DHT22;10524;48.132;8.518;2022-12-08T08:57:29;0.30;99.90
20726;DHT22;10524;48.132;8.518;2022-12-08T08:59:55;0.40;99.90
20726;DHT22;10524;48.132;8.518;2022-12-08T09:02:20;0.40;99.90
20726;DHT22;10524;48.132;8.518;2022-12-08T09:04:46;0.50;99.90
20726;DHT22;10524;48.132;8.518;2022-12-08T09:07:12;0.80;99.90
20726;DHT22;10524;48.132;8.518;2022-12-08T09:09:38;1.00;99.90
20726;DHT22;10524;48.132;8.518;2022-12-08T09:12:04;1.00;99.90
20726;DHT22;10524;48.132;8.518;2022-12-08T09:14:30;0.50;99.90
20726;DHT22;10524;48.132;8.518;2022-12-08T09:16:56;0.00;99.90
20726;DHT22;10524;48.132;8.518;2022-12-08T09:19:21;-0.20;99.90
20726;DHT22;10524;48.132;8.518;2022-12-08T09:21:47;-0.40;99.90
20726;DHT22;10524;48.132;8.518;2022-12-08T09:24:13;-0.30;99.90
20726;DHT22;10524;48.132;8.518;2022-12-08T09:26:42;-0.10;99.90
20726;DHT22;10524;48.132;8.518;2022-12-08T09:29:09;0.30;99.90
20726;DHT22;10524;48.132;8.518;2022-12-08T09:31:35;0.70;99.90
20726;DHT22;10524;48.132;8.518;2022-12-08T09:34:00;0.70;99.90
20726;DHT22;10524;48.132;8.518;2022-12-08T09:36:26;0.90;99.90
20726;DHT22;10524;48.132;8.518;2022-12-08T09:38:52;1.20;99.90
20726;DHT22;10524;48.132;8.518;2022-12-08T09:41:35;1.10;99.90
20726;DHT22;10524;48.132;8.518;2022-12-08T09:46:50;1.40;99.90
20726;DHT22;10524;48.132;8.518;2022-12-08T09:49:19;1.30;99.90
20726;DHT22;10524;48.132;8.518;2022-12-08T09:51:46;1.50;99.90
20726;DHT22;10524;48.132;8.518;2022-12-08T09:56:42;2.00;99.90
20726;DHT22;10524;48.132;8.518;2022-12-08T10:01:36;2.40;99.90
20726;DHT22;10524;48.132;8.518;2022-12-08T10:04:19;2.50;99.90
20726;DHT22;10524;48.132;8.518;2022-12-08T10:12:46;3.40;99.90
20726;DHT22;10524;48.132;8.518;2022-12-08T10:18:18;2.90;99.90
20726;DHT22;10524;48.132;8.518;2022-12-08T10:20:46;2.60;99.90
20726;DHT22;10524;48.132;8.518;2022-12-08T10:26:14;2.70;99.90
20726;DHT22;10524;48.132;8.518;2022-12-08T10:28:40;2.90;99.90
20726;DHT22;10524;48.132;8.518;2022-12-08T10:31:20;3.00;99.90
20726;DHT22;10524;48.132;8.518;2022-12-08T10:33:51;3.10;99.90
20726;DHT22;10524;48.132;8.518;2022-12-08T10:36:18;2.80;99.90
20726;DHT22;10524;48.132;8.518;2022-12-08T10:38:44;2.50;99.90
20726;DHT22;10524;48.132;8.518;2022-12-08T10:43:46;3.10;99.90
20726;DHT22;10524;48.132;8.518;2022-12-08T10:46:21;3.10;99.90
20726;DHT22;10524;48.132;8.518;2022-12-08T10:51:27;7.80;99.90
20726;DHT22;10524;48.132;8.518;2022-12-08T10:53:54;10.20;99.90
20726;DHT22;10524;48.132;8.518;2022-12-08T10:56:27;11.10;99.90
20726;DHT22;10524;48.132;8.518;2022-12-08T11:01:38;13.20;99.90
20726;DHT22;10524;48.132;8.518;2022-12-08T11:04:19;14.10;99.90
20726;DHT22;10524;48.132;8.518;2022-12-08T11:06:47;13.80;99.90
20726;DHT22;10524;48.132;8.518;2022-12-08T11:12:10;10.60;99.90
20726;DHT22;10524;48.132;8.518;2022-12-08T11:14:46;9.50;99.90
20726;DHT22;10524;48.132;8.518;2022-12-08T11:19:43;7.30;99.90
20726;DHT22;10524;48.132;8.518;2022-12-08T11:27:43;5.00;99.90
20726;DHT22;10524;48.132;8.518;2022-12-08T11:30:17;4.70;99.90
20726;DHT22;10524;48.132;8.518;2022-12-08T11:32:44;4.50;99.90
20726;DHT22;10524;48.132;8.518;2022-12-08T11:35:27;4.00;99.90
20726;DHT22;10524;48.132;8.518;2022-12-08T11:38:13;3.80;99.90
20726;DHT22;10524;48.132;8.518;2022-12-08T11:40:42;3.80;99.90
20726;DHT22;10524;48.132;8.518;2022-12-08T11:43:21;3.70;99.90
20726;DHT22;10524;48.132;8.518;2022-12-08T11:46:00;3.60;99.90
20726;DHT22;10524;48.132;8.518;2022-12-08T11:51:16;3.60;99.90
20726;DHT22;10524;48.132;8.518;2022-12-08T11:53:57;3.50;99.90
20726;DHT22;10524;48.132;8.518;2022-12-08T11:58:56;3.20;99.90
20726;DHT22;10524;48.132;8.518;2022-12-08T12:01:25;3.20;99.90
20726;DHT22;10524;48.132;8.518;2022-12-08T12:07:38;3.10;99.90
20726;DHT22;10524;48.132;8.518;2022-12-08T12:12:51;3.00;99.90
20726;DHT22;10524;48.132;8.518;2022-12-08T12:15:34;3.00;99.90
20726;DHT22;10524;48.132;8.518;2022-12-08T12:20:50;2.60;99.90
20726;DHT22;10524;48.132;8.518;2022-12-08T12:23:21;2.80;99.90
20726;DHT22;10524;48.132;8.518;2022-12-08T12:25:57;2.90;99.90
20726;DHT22;10524;48.132;8.518;2022-12-08T12:28:27;2.80;99.90
20726;DHT22;10524;48.132;8.518;2022-12-08T12:31:04;3.00;99.90
20726;DHT22;10524;48.132;8.518;2022-12-08T12:33:30;3.00;99.90
20726;DHT22;10524;48.132;8.518;2022-12-08T12:36:00;3.00;99.90
20726;DHT22;10524;48.132;8.518;2022-12-08T12:38:33;2.80;99.90
20726;DHT22;10524;48.132;8.518;2022-12-08T12:54:30;2.30;99.90
20726;DHT22;10524;48.132;8.518;2022-12-08T13:07:30;1.50;99.90
20726;DHT22;10524;48.132;8.518;2022-12-08T13:10:01;1.50;99.90
20726;DHT22;10524;48.132;8.518;2022-12-08T13:12:27;1.50;99.90
20726;DHT22;10524;48.132;8.518;2022-12-08T13:14:59;1.40;99.90
20726;DHT22;10524;48.132;8.518;2022-12-08T13:17:29;1.40;99.90
20726;DHT22;10524;48.132;8.518;2022-12-08T13:19:58;1.40;99.90
20726;DHT22;10524;48.132;8.518;2022-12-08T13:28:28;1.20;99.90
20726;DHT22;10524;48.132;8.518;2022-12-08T13:31:02;1.10;99.90
20726;DHT22;10524;48.132;8.518;2022-12-08T13:33:36;1.10;99.90
20726;DHT22;10524;48.132;8.518;2022-12-08T13:36:27;0.90;99.90
20726;DHT22;10524;48.132;8.518;2022-12-08T13:38:57;1.00;99.90
20726;DHT22;10524;48.132;8.518;2022-12-08T13:41:39;1.10;99.90
20726;DHT22;10524;48.132;8.518;2022-12-08T13:44:18;1.10;99.90
20726;DHT22;10524;48.132;8.518;2022-12-08T13:46:49;1.10;99.90
20726;DHT22;10524;48.132;8.518;2022-12-08T13:49:20;1.10;99.90
20726;DHT22;10524;48.132;8.518;2022-12-08T13:51:47;1.10;99.90
20726;DHT22;10524;48.132;8.518;2022-12-08T13:54:31;1.10;99.90
20726;DHT22;10524;48.132;8.518;2022-12-08T13:56:59;1.10;99.90
20726;DHT22;10524;48.132;8.518;2022-12-08T13:59:33;1.00;99.90
20726;DHT22;10524;48.132;8.518;2022-12-08T14:02:49;0.80;99.90
20726;DHT22;10524;48.132;8.518;2022-12-08T14:04:48;0.80;99.90
20726;DHT22;10524;48.132;8.518;2022-12-08T14:07:14;0.80;99.90
20726;DHT22;10524;48.132;8.518;2022-12-08T14:09:41;0.80;99.90
20726;DHT22;10524;48.132;8.518;2022-12-08T14:12:24;0.80;99.90
20726;DHT22;10524;48.132;8.518;2022-12-08T14:15:03;0.80;99.90
20726;DHT22;10524;48.132;8.518;2022-12-08T14:17:31;0.90;99.90
20726;DHT22;10524;48.132;8.518;2022-12-08T14:19:59;0.90;99.90
20726;DHT22;10524;48.132;8.518;2022-12-08T14:22:31;0.90;99.90
20726;DHT22;10524;48.132;8.518;2022-12-08T14:24:58;0.80;99.90
20726;DHT22;10524;48.132;8.518;2022-12-08T14:27:25;0.70;99.90
20726;DHT22;10524;48.132;8.518;2022-12-08T14:29:57;0.70;99.90
20726;DHT22;10524;48.132;8.518;2022-12-08T14:35:27;0.60;99.90
20726;DHT22;10524;48.132;8.518;2022-12-08T14:37:47;0.70;99.90
20726;DHT22;10524;48.132;8.518;2022-12-08T14:40:21;0.60;99.90
20726;DHT22;10524;48.132;8.518;2022-12-08T14:45:17;0.40;99.90
20726;DHT22;10524;48.132;8.518;2022-12-08T14:47:43;0.20;99.90
20726;DHT22;10524;48.132;8.518;2022-12-08T14:50:39;0.20;99.90
20726;DHT22;10524;48.132;8.518;2022-12-08T14:53:16;0.10;99.90
20726;DHT22;10524;48.132;8.518;2022-12-08T14:55:44;0.10;99.90
20726;DHT22;10524;48.132;8.518;2022-12-08T14:58:28;0.00;99.90
20726;DHT22;10524;48.132;8.518;2022-12-08T15:00:58;0.00;99.90
20726;DHT22;10524;48.132;8.518;2022-12-08T15:03:27;0.00;99.90
20726;DHT22;10524;48.132;8.518;2022-12-08T15:05:57;-0.10;99.90
20726;DHT22;10524;48.132;8.518;2022-12-08T15:08:23;-0.10;99.90
20726;DHT22;10524;48.132;8.518;2022-12-08T15:11:11;-0.20;99.90
20726;DHT22;10524;48.132;8.518;2022-12-08T15:13:43;-0.30;99.90
20726;DHT22;10524;48.132;8.518;2022-12-08T15:16:27;-0.30;99.90
20726;DHT22;10524;48.132;8.518;2022-12-08T15:21:37;-0.40;99.90
20726;DHT22;10524;48.132;8.518;2022-12-08T15:24:03;-0.40;99.90
20726;DHT22;10524;48.132;8.518;2022-12-08T15:26:36;-0.40;99.90
20726;DHT22;10524;48.132;8.518;2022-12-08T15:29:32;-0.40;99.90
20726;DHT22;10524;48.132;8.518;2022-12-08T15:32:00;-0.50;99.90
20726;DHT22;10524;48.132;8.518;2022-12-08T15:34:26;-0.50;99.90
20726;DHT22;10524;48.132;8.518;2022-12-08T15:36:52;-0.50;99.90
20726;DHT22;10524;48.132;8.518;2022-12-08T15:39:37;-0.50;99.90
20726;DHT22;10524;48.132;8.518;2022-12-08T15:42:05;-0.50;99.90
20726;DHT22;10524;48.132;8.518;2022-12-08T15:44:34;-0.50;99.90
20726;DHT22;10524;48.132;8.518;2022-12-08T15:47:00;-0.60;99.90
20726;DHT22;10524;48.132;8.518;2022-12-08T15:49:26;-0.60;99.90
20726;DHT22;10524;48.132;8.518;2022-12-08T15:51:52;-0.70;99.90
20726;DHT22;10524;48.132;8.518;2022-12-08T15:54:18;-0.70;99.90
20726;DHT22;10524;48.132;8.518;2022-12-08T15:57:02;-0.80;99.90
20726;DHT22;10524;48.132;8.518;2022-12-08T15:59:27;-0.80;99.90
20726;DHT22;10524;48.132;8.518;2022-12-08T16:01:53;-0.80;99.90
20726;DHT22;10524;48.132;8.518;2022-12-08T16:04:20;-0.80;99.90
20726;DHT22;10524;48.132;8.518;2022-12-08T16:06:49;-0.90;99.90
20726;DHT22;10524;48.132;8.518;2022-12-08T16:09:26;-0.90;99.90
20726;DHT22;10524;48.132;8.518;2022-12-08T16:11:54;-0.90;99.90
20726;DHT22;10524;48.132;8.518;2022-12-08T16:14:39;-1.00;99.90
20726;DHT22;10524;48.132;8.518;2022-12-08T16:17:14;-1.00;99.90
20726;DHT22;10524;48.132;8.518;2022-12-08T16:19:40;-1.00;99.90
20726;DHT22;10524;48.132;8.518;2022-12-08T16:22:08;-1.00;99.90
20726;DHT22;10524;48.132;8.518;2022-12-08T16:24:35;-0.90;99.90
20726;DHT22;10524;48.132;8.518;2022-12-08T16:27:00;-0.90;99.90
20726;DHT22;10524;48.132;8.518;2022-12-08T16:29:26;-0.80;99.90
20726;DHT22;10524;48.132;8.518;2022-12-08T16:31:52;-0.80;99.90
20726;DHT22;10524;48.132;8.518;2022-12-08T16:34:17;-0.90;99.90
20726;DHT22;10524;48.132;8.518;2022-12-08T16:36:43;-0.90;99.90
20726;DHT22;10524;48.132;8.518;2022-12-08T16:39:11;-1.00;99.90
20726;DHT22;10524;48.132;8.518;2022-12-08T16:41:37;-1.00;99.90
20726;DHT22;10524;48.132;8.518;2022-12-08T16:44:21;-1.10;99.90
20726;DHT22;10524;48.132;8.518;2022-12-08T16:46:47;-1.30;99.90
20726;DHT22;10524;48.132;8.518;2022-12-08T16:49:12;-1.50;99.90
20726;DHT22;10524;48.132;8.518;2022-12-08T16:51:41;-1.60;99.90
20726;DHT22;10524;48.132;8.518;2022-12-08T16:54:07;-1.80;99.90
20726;DHT22;10524;48.132;8.518;2022-12-08T16:56:32;-1.80;99.90
20726;DHT22;10524;48.132;8.518;2022-12-08T16:58:59;-1.80;99.90
20726;DHT22;10524;48.132;8.518;2022-12-08T17:01:24;-1.90;99.90
20726;DHT22;10524;48.132;8.518;2022-12-08T17:03:50;-2.00;99.90
20726;DHT22;10524;48.132;8.518;2022-12-08T17:06:17;-2.10;99.90
20726;DHT22;10524;48.132;8.518;2022-12-08T17:08:43;-2.10;99.90
20726;DHT22;10524;48.132;8.518;2022-12-08T17:11:18;-2.00;99.90
20726;DHT22;10524;48.132;8.518;2022-12-08T17:13:44;-2.00;99.90
20726;DHT22;10524;48.132;8.518;2022-12-08T17:16:14;-2.00;99.90
20726;DHT22;10524;48.132;8.518;2022-12-08T17:18:40;-2.20;99.90
20726;DHT22;10524;48.132;8.518;2022-12-08T17:21:10;-2.50;99.90
20726;DHT22;10524;48.132;8.518;2022-12-08T17:23:37;-2.70;99.90
20726;DHT22;10524;48.132;8.518;2022-12-08T17:26:03;-2.90;99.90
20726;DHT22;10524;48.132;8.518;2022-12-08T17:28:29;-3.00;99.90
20726;DHT22;10524;48.132;8.518;2022-12-08T17:30:54;-3.10;99.90
20726;DHT22;10524;48.132;8.518;2022-12-08T17:33:20;-3.20;99.90
20726;DHT22;10524;48.132;8.518;2022-12-08T17:35:50;-3.30;99.90
20726;DHT22;10524;48.132;8.518;2022-12-08T17:38:18;-3.50;99.90
20726;DHT22;10524;48.132;8.518;2022-12-08T17:40:44;-3.50;99.90
20726;DHT22;10524;48.132;8.518;2022-12-08T17:43:11;-3.50;99.90
20726;DHT22;10524;48.132;8.518;2022-12-08T17:45:45;-3.40;99.90
20726;DHT22;10524;48.132;8.518;2022-12-08T17:48:11;-3.30;99.90
20726;DHT22;10524;48.132;8.518;2022-12-08T17:50:39;-3.40;99.90